• Join FlightAware (Why Join?)
  • Login
  • US Flag 
07:41AM EDT


 

Airport Tracker/Info


-or-


 

Live Flight TrackerFlight Track Log ✈ UPS1295 ✈ 23-May-2013 ✈ KGSP - KSDF

Flight Track Log - Related Links

Times and Time Zones

All times are in EDT time to prevent confusion due to time zone crossing. See the UPS1295 flight status page for this flight to view local times or setup timezone preferences in your user account.

Time Position Orientation Groundspeed Altitude Reporting Facility
EDT Latitude Longitude Course Direction KTS MPH feet Rate Location/Type
11:29PM 34.9406 -82.1867 36° Northeast 180 207 3,400  Level Atlanta Center
11:30PM 34.9961 -82.1372 36° Northeast 238 274 5,800 2,400 Climbing Atlanta Center
11:36PM 35.5049 -82.0988 36° Northeast 405 466 20,800 2,400 Climbing FlightAware ADS-B
11:37PM 35.5444 -82.1492 314° West 413 475 21,900 2,040 Climbing FlightAware ADS-B
11:37PM 35.5863 -82.2021 314° West 422 486 22,900 1,740 Climbing FlightAware ADS-B
11:38PM 35.6278 -82.2562 313° West 429 494 23,700 1,740 Climbing FlightAware ADS-B
11:38PM 35.6702 -82.3093 315° West 434 499 24,700 1,800 Climbing FlightAware ADS-B
11:39PM 35.7133 -82.3652 314° West 440 506 25,600 1,620 Climbing FlightAware ADS-B
11:39PM 35.7564 -82.4199 314° West 448 516 26,400 1,440 Climbing FlightAware ADS-B
11:40PM 35.8008 -82.4776 314° West 456 525 27,100 1,740 Climbing FlightAware ADS-B
11:40PM 35.8463 -82.5357 314° West 454 522 28,200 2,040 Climbing FlightAware ADS-B
11:41PM 35.8897 -82.5918 314° West 451 519 29,200 1,800 Climbing FlightAware ADS-B
11:41PM 35.9332 -82.6477 314° West 452 520 30,000 780 Climbing FlightAware ADS-B
11:42PM 35.9777 -82.7059 313° West 452 520 30,000  Level FlightAware ADS-B
11:42PM 36.0225 -82.7640 314° West 452 520 30,000  Level FlightAware ADS-B
11:43PM 36.0664 -82.8216 313° West 446 513 30,000  Level FlightAware ADS-B
11:43PM 36.1100 -82.8784 314° West 438 504 30,000  Level FlightAware ADS-B
11:44PM 36.1516 -82.9325 314° West 433 498 30,000  Level FlightAware ADS-B
11:44PM 36.1948 -82.9879 314° West 427 491 30,000  Level FlightAware ADS-B
11:45PM 36.2358 -83.0429 313° West 424 488 30,000  Level FlightAware ADS-B
11:45PM 36.2763 -83.0958 314° West 424 488 30,000  Level FlightAware ADS-B
11:46PM 36.3186 -83.1504 314° West 424 488 30,000  Level FlightAware ADS-B
11:46PM 36.3604 -83.2050 314° West 424 488 30,000  Level FlightAware ADS-B
11:47PM 36.4012 -83.2582 314° West 425 489 30,000  Level FlightAware ADS-B
11:47PM 36.4436 -83.3150 313° West 422 486 30,000  Level FlightAware ADS-B
11:48PM 36.4836 -83.3678 313° West 417 480 30,000  Level FlightAware ADS-B
11:48PM 36.5253 -83.4238 313° West 417 480 30,000  Level FlightAware ADS-B
11:49PM 36.5675 -83.4780 314° West 416 479 30,000  Level FlightAware ADS-B
11:49PM 36.6079 -83.5321 313° West 415 478 30,000  Level FlightAware ADS-B
11:50PM 36.6480 -83.5863 313° West 414 476 30,000  Level FlightAware ADS-B
11:50PM 36.6872 -83.6384 313° West 413 475 30,000  Level FlightAware ADS-B
11:51PM 36.7265 -83.6905 313° West 412 474 30,000 -300 Level FlightAware ADS-B
11:51PM 36.7666 -83.7447 313° West 416 479 29,700 -840 Descending FlightAware ADS-B
11:52PM 36.8417 -83.8449 313° West 430 495 28,800 -1,020 Descending FlightAware ADS-B
11:53PM 36.8828 -83.8995 313° West 432 497 28,300 -1,080 Descending FlightAware ADS-B
11:54PM 36.9455 -83.9837 313° West 432 497 27,500 -1,080 Descending FlightAware ADS-B
11:54PM 37.0026 -84.0607 313° West 432 497 26,800 -1,080 Descending FlightAware ADS-B
11:57PM 37.1795 -84.2997 313° West 425 489 24,500 -1,080 Descending FlightAware ADS-B
11:57PM 37.2393 -84.3813 313° West 416 479 23,700 -1,260 Descending FlightAware ADS-B
11:58PM 37.2775 -84.4338 312° West 389 448 22,900 -1,920 Descending FlightAware ADS-B
11:58PM 37.3139 -84.4830 313° West 378 435 21,800 -2,340 Descending FlightAware ADS-B
11:59PM 37.3492 -84.5327 312° West 370 426 20,600 -2,520 Descending FlightAware ADS-B
11:59PM 37.3839 -84.5798 313° West 365 420 19,300 -2,640 Descending FlightAware ADS-B
12:00AM 37.4233 -84.6344 312° West 361 415 17,800 -2,580 Descending FlightAware ADS-B
12:00AM 37.4233 -84.6344 312° West 361 415 17,800 -1,740 Level FlightAware ADS-B
12:00AM 37.4478 -84.6692 312° West 363 418 16,900 -2,280 Descending Indianapolis Center
12:01AM 37.5139 -84.7597 313° West 354 407 14,300 -2,280 Descending Indianapolis Center
12:02AM 37.5781 -84.8489 312° West 344 396 12,300 -1,560 Descending Indianapolis Center
12:04AM 37.6447 -84.9397 313° West 297 342 11,200 -1,140 Descending Indianapolis Center
12:05AM 37.6950 -85.0106 312° West 272 313 10,000 -1,380 Descending Indianapolis Center
12:06AM 37.7439 -85.0786 312° West 263 303 8,400 -1,620 Descending Indianapolis Center
12:07AM 37.7653 -85.1594 289° West 260 299 6,800 -1,560 Descending Indianapolis Center
12:08AM 37.7572 -85.2492 264° West 259 298 5,300 -1,380 Descending Indianapolis Center
12:09AM 37.7458 -85.3408 261° West 261 300 4,000 -420 Descending Indianapolis Center
12:14AM 37.8060 -85.6030 261° West 157 181 2,800 -240 Descending FlightAware
12:14AM 37.8120 -85.6050 345° North 156 180 2,800 120 Level FlightAware
12:15AM 37.8370 -85.6110 349° North 153 176 2,900  Climbing FlightAware
12:15AM 37.8460 -85.6130 350° North 152 175 2,800  Descending FlightAware
12:15AM 37.8660 -85.6200 345° North 152 175 2,900 120 Climbing FlightAware
12:15AM 37.8720 -85.6230 338° Northwest 152 175 2,900 -180 Level FlightAware
12:16AM 37.8880 -85.6290 344° North 151 174 2,800  Descending FlightAware
12:16AM 37.9100 -85.6390 340° North 152 175 2,900  Climbing FlightAware
12:17AM 37.9270 -85.6440 347° North 154 177 2,800  Descending FlightAware
12:17AM 37.9510 -85.6510 347° North 156 180 2,900 120 Climbing FlightAware
12:18AM 37.9620 -85.6540 348° North 155 178 2,900  Level FlightAware
12:18AM 37.9820 -85.6610 345° North 155 178 2,900  Level FlightAware
12:19AM 37.9990 -85.6670 344° North 154 177 2,900  Level FlightAware
12:19AM 38.0200 -85.6740 345° North 152 175 2,900 -120 Level FlightAware
12:20AM 38.0410 -85.6810 345° North 151 174 2,800 -180 Descending FlightAware
12:20AM 38.0480 -85.6840 341° North 153 176 2,800 -780 Level FlightAware
12:20AM 38.0690 -85.6910 345° North 149 171 2,300 -960 Descending FlightAware
12:20AM 38.0790 -85.6940 347° North 132 152 2,100 -600 Descending FlightAware
12:21AM 38.0910 -85.6990 342° North 116 133 1,900 -600 Descending FlightAware
12:21AM 38.1000 -85.7010 350° North 118 136 1,700 -720 Descending FlightAware
12:22AM 38.1160 -85.7070 344° North 120 138 1,400 -720 Descending FlightAware
12:22AM 38.1240 -85.7090 349° North 117 135 1,200 -600 Descending FlightAware
12:22AM 38.1370 -85.7140 343° North 122 140 1,000 -660 Descending FlightAware
12:23AM 38.1530 -85.7190 346° North 121 139 600 -720 Descending FlightAware
12:23AM 38.1610 -85.7220 344° North 121 139 500 -360 Descending FlightAware
12:24AM 38.1790 -85.7280 345° North 121 139 300 -360 Descending FlightAware